createdAt,value
2018-04-15T00:00:12.785Z,96474.59
2018-04-15T00:02:38.667Z,96468.63
2018-04-15T00:05:08.487Z,96471.05
2018-04-15T00:07:34.413Z,96466.97
2018-04-15T00:10:02.451Z,96474.53
2018-04-15T00:12:28.580Z,96476.41
2018-04-15T00:14:57.997Z,96473.19
2018-04-15T00:17:23.920Z,96467.05
2018-04-15T00:19:51.627Z,96471.55
2018-04-15T00:22:17.504Z,96460.39
2018-04-15T00:24:43.451Z,96477.66
2018-04-15T00:27:09.386Z,96477.57
2018-04-15T00:29:35.301Z,96472.79
2018-04-15T00:32:04.388Z,96474.81
2018-04-15T00:34:30.306Z,96472.42
2018-04-15T00:36:58.093Z,96467.31
2018-04-15T00:39:23.955Z,96465.55
2018-04-15T00:41:53.831Z,96452.02
2018-04-15T00:44:19.731Z,96469.64
2018-04-15T00:46:47.631Z,96473.42
2018-04-15T00:49:13.507Z,96472.23
2018-04-15T00:51:43.192Z,96467.85
2018-04-15T00:54:16.197Z,96467.64
2018-04-15T00:56:42.172Z,96462.80
2018-04-15T00:59:08.040Z,96453.53
2018-04-15T01:01:33.904Z,96440.67
2018-04-15T01:03:59.825Z,96449.33
2018-04-15T01:06:25.733Z,96446.66
2018-04-15T01:08:51.640Z,96447.54
2018-04-15T01:11:17.599Z,96453.32
2018-04-15T01:13:43.471Z,96452.59
2018-04-15T01:16:09.347Z,96451.30
2018-04-15T01:18:38.535Z,96453.05
2018-04-15T01:21:04.402Z,96434.64
2018-04-15T01:23:33.059Z,96440.55
2018-04-15T01:25:58.940Z,96444.27
2018-04-15T01:28:27.542Z,96448.78
2018-04-15T01:30:53.455Z,96447.23
2018-04-15T01:33:22.480Z,96450.48
2018-04-15T01:35:48.404Z,96452.50
2018-04-15T01:38:14.336Z,96450.80
2018-04-15T01:40:40.200Z,96454.25
2018-04-15T01:43:06.075Z,96452.73
2018-04-15T01:45:33.976Z,96455.70
2018-04-15T01:47:59.879Z,96454.67
2018-04-15T01:50:29.623Z,96454.38
2018-04-15T01:52:55.502Z,96459.55
2018-04-15T01:55:23.358Z,96466.09
2018-04-15T01:57:49.244Z,96463.96
2018-04-15T02:00:19.111Z,96473.10
2018-04-15T02:02:44.999Z,96475.91
2018-04-15T02:05:12.658Z,96474.38
2018-04-15T02:07:38.568Z,96475.84
2018-04-15T02:10:07.729Z,96475.27
2018-04-15T02:12:33.620Z,96475.56
2018-04-15T02:14:59.482Z,96471.28
2018-04-15T02:17:25.393Z,96467.31
2018-04-15T02:19:51.283Z,96461.16
2018-04-15T02:22:21.067Z,96458.81
2018-04-15T02:24:46.920Z,96452.76
2018-04-15T02:27:14.128Z,96453.40
2018-04-15T02:29:39.997Z,96454.55
2018-04-15T02:32:09.823Z,96456.94
2018-04-15T02:34:35.722Z,96452.07
2018-04-15T02:37:03.226Z,96453.34
2018-04-15T02:39:29.183Z,96451.92
2018-04-15T02:41:57.682Z,96449.50
2018-04-15T02:44:23.604Z,96446.39
2018-04-15T02:46:53.417Z,96441.72
2018-04-15T02:49:19.301Z,96431.52
2018-04-15T02:51:45.275Z,96425.89
2018-04-15T02:54:11.155Z,96420.54
2018-04-15T02:56:37.055Z,96422.81
2018-04-15T02:59:04.651Z,96428.03
2018-04-15T03:01:30.546Z,96416.35
2018-04-15T03:03:59.599Z,96418.83
2018-04-15T03:06:25.493Z,96417.78
2018-04-15T03:08:54.120Z,96418.09
2018-04-15T03:11:20.029Z,96421.27
2018-04-15T03:13:48.965Z,96414.57
2018-04-15T03:16:14.847Z,96408.50
2018-04-15T03:18:43.485Z,96413.25
2018-04-15T03:21:09.366Z,96411.73
2018-04-15T03:23:38.084Z,96412.74
2018-04-15T03:26:04.004Z,96406.22
2018-04-15T03:28:29.943Z,96401.78
2018-04-15T03:30:55.875Z,96402.78
2018-04-15T03:33:21.933Z,96391.94
2018-04-15T03:35:51.035Z,96394.75
2018-04-15T03:38:16.911Z,96397.98
2018-04-15T03:40:44.663Z,96402.21
2018-04-15T03:43:10.587Z,96395.17
2018-04-15T03:45:40.359Z,96389.70
2018-04-15T03:48:06.240Z,96397.66
2018-04-15T03:50:34.349Z,96393.61
2018-04-15T03:53:00.279Z,96392.25
2018-04-15T03:55:29.251Z,96402.63
2018-04-15T03:57:55.114Z,96391.75
2018-04-15T04:00:23.195Z,96400.02
2018-04-15T04:02:49.116Z,96394.99
2018-04-15T04:05:15.031Z,96399.59
2018-04-15T04:07:40.951Z,96395.84
2018-04-15T04:10:06.826Z,96387.84
2018-04-15T04:12:35.276Z,96386.75
2018-04-15T04:15:01.175Z,96372.70
2018-04-15T04:17:42.567Z,96369.98
2018-04-15T04:20:20.675Z,96367.17
2018-04-15T04:22:58.970Z,96365.37
2018-04-15T04:25:37.375Z,96360.84
2018-04-15T04:28:03.283Z,96360.17
2018-04-15T04:30:29.160Z,96360.13
2018-04-15T04:32:55.052Z,96356.42
2018-04-15T04:35:20.963Z,96353.21
2018-04-15T04:37:46.891Z,96353.96
2018-04-15T04:40:12.768Z,96352.56
2018-04-15T04:42:38.708Z,96348.25
2018-04-15T04:45:04.627Z,96352.64
2018-04-15T04:47:30.548Z,96335.92
2018-04-15T04:49:56.442Z,96347.78
2018-04-15T04:52:22.287Z,96330.74
2018-04-15T04:54:48.204Z,96356.63
2018-04-15T04:57:14.109Z,96353.98
2018-04-15T04:59:40.003Z,96354.62
2018-04-15T05:02:05.900Z,96356.78
2018-04-15T05:04:31.820Z,96362.89
2018-04-15T05:06:57.716Z,96367.95
2018-04-15T05:09:23.628Z,96372.24
2018-04-15T05:11:49.565Z,96369.45
2018-04-15T05:14:15.507Z,96367.18
2018-04-15T05:16:41.419Z,96376.00
2018-04-15T05:19:07.322Z,96373.94
2018-04-15T05:21:33.224Z,96366.97
2018-04-15T05:23:59.263Z,96361.67
2018-04-15T05:26:25.174Z,96375.13
2018-04-15T05:28:51.076Z,96372.30
2018-04-15T05:31:16.987Z,96373.59
2018-04-15T05:33:42.904Z,96373.19
2018-04-15T05:36:08.884Z,96370.95
2018-04-15T05:38:34.791Z,96375.94
2018-04-15T05:41:00.720Z,96374.50
2018-04-15T05:43:26.608Z,96372.96
2018-04-15T05:45:52.476Z,96367.17
2018-04-15T05:48:18.382Z,96372.94
2018-04-15T05:50:44.459Z,96364.86
2018-04-15T05:53:10.431Z,96370.87
2018-04-15T05:55:36.356Z,96357.66
2018-04-15T05:58:02.276Z,96368.67
2018-04-15T06:00:28.212Z,96359.48
2018-04-15T06:02:54.108Z,96363.05
2018-04-15T06:05:20.048Z,96359.53
2018-04-15T06:07:45.942Z,96360.06
2018-04-15T06:10:11.802Z,96353.90
2018-04-15T06:12:40.817Z,96355.47
2018-04-15T06:15:06.716Z,96351.87
2018-04-15T06:17:35.952Z,96346.47
2018-04-15T06:20:01.874Z,96342.05
2018-04-15T06:22:31.474Z,96341.92
2018-04-15T06:24:57.429Z,96342.26
2018-04-15T06:27:25.074Z,96339.73
2018-04-15T06:29:50.984Z,96351.31
2018-04-15T06:32:16.868Z,96354.98
2018-04-15T06:34:42.755Z,96344.27
2018-04-15T06:37:08.639Z,96344.17
2018-04-15T06:39:37.894Z,96342.82
2018-04-15T06:42:03.851Z,96349.43
2018-04-15T06:44:31.476Z,96354.75
2018-04-15T06:46:57.384Z,96348.25
2018-04-15T06:49:27.368Z,96350.80
2018-04-15T06:51:53.259Z,96354.47
2018-04-15T06:54:20.886Z,96352.91
2018-04-15T06:56:46.749Z,96351.79
2018-04-15T06:59:15.793Z,96349.91
2018-04-15T07:01:41.715Z,96343.48
2018-04-15T07:04:09.609Z,96340.29
2018-04-15T07:06:35.512Z,96336.55
2018-04-15T07:09:01.457Z,96340.89
2018-04-15T07:11:27.689Z,96336.89
2018-04-15T07:13:53.605Z,96335.10
2018-04-15T07:16:23.023Z,96335.28
2018-04-15T07:18:48.991Z,96332.69
2018-04-15T07:21:16.723Z,96341.67
2018-04-15T07:23:42.610Z,96337.84
2018-04-15T07:26:11.547Z,96342.46
2018-04-15T07:28:37.456Z,96339.16
2018-04-15T07:31:07.146Z,96337.24
2018-04-15T07:33:33.031Z,96330.66
2018-04-15T07:36:02.019Z,96336.80
2018-04-15T07:38:27.941Z,96326.16
2018-04-15T07:40:55.721Z,96326.40
2018-04-15T07:43:21.582Z,96319.70
2018-04-15T07:45:47.492Z,96318.98
2018-04-15T07:48:13.404Z,96315.17
2018-04-15T07:50:39.459Z,96310.75
2018-04-15T07:53:07.235Z,96305.35
2018-04-15T07:55:33.155Z,96305.98
2018-04-15T07:58:02.859Z,96302.20
2018-04-15T08:00:28.770Z,96300.69
2018-04-15T08:02:56.486Z,96300.88
2018-04-15T08:05:22.394Z,96294.03
2018-04-15T08:07:51.200Z,96297.49
2018-04-15T08:10:17.095Z,96298.25
2018-04-15T08:12:46.773Z,96296.94
2018-04-15T08:15:12.696Z,96296.33
2018-04-15T08:17:40.376Z,96291.00
2018-04-15T08:20:06.291Z,96283.50
2018-04-15T08:22:32.157Z,96286.75
2018-04-15T08:24:58.027Z,96284.20
2018-04-15T08:27:23.929Z,96279.77
2018-04-15T08:29:52.968Z,96276.41
2018-04-15T08:32:18.885Z,96280.80
2018-04-15T08:34:48.641Z,96275.23
2018-04-15T08:37:14.533Z,96266.47
2018-04-15T08:39:42.140Z,96267.93
2018-04-15T08:42:08.064Z,96260.73
2018-04-15T08:44:37.716Z,96261.58
2018-04-15T08:47:03.688Z,96263.89
2018-04-15T08:49:31.391Z,96260.16
2018-04-15T08:51:57.291Z,96262.15
2018-04-15T08:54:27.045Z,96263.59
2018-04-15T08:56:52.930Z,96257.16
2018-04-15T08:59:18.939Z,96254.62
2018-04-15T09:01:44.883Z,96259.45
2018-04-15T09:04:10.752Z,96261.50
2018-04-15T09:06:37.237Z,96264.36
2018-04-15T09:09:03.264Z,96259.98
2018-04-15T09:11:32.215Z,96256.67
2018-04-15T09:13:58.582Z,96255.45
2018-04-15T09:16:27.718Z,96263.70
2018-04-15T09:18:53.614Z,96254.62
2018-04-15T09:21:21.271Z,96260.89
2018-04-15T09:23:47.154Z,96261.98
2018-04-15T09:26:15.951Z,96258.84
2018-04-15T09:28:41.830Z,96253.34
2018-04-15T09:31:11.665Z,96257.81
2018-04-15T09:33:37.567Z,96252.02
2018-04-15T09:36:03.465Z,96248.80
2018-04-15T09:38:29.373Z,96243.68
2018-04-15T09:40:55.313Z,96246.69
2018-04-15T09:43:22.695Z,96243.02
2018-04-15T09:45:48.616Z,96236.41
2018-04-15T09:48:17.599Z,96240.61
2018-04-15T09:50:43.479Z,96234.37
2018-04-15T09:53:12.499Z,96242.02
2018-04-15T09:55:38.427Z,96242.83
2018-04-15T09:58:08.232Z,96244.57
2018-04-15T10:00:34.152Z,96231.55
2018-04-15T10:03:01.933Z,96231.77
2018-04-15T10:05:27.857Z,96220.94
2018-04-15T10:07:57.684Z,96217.31
2018-04-15T10:10:23.585Z,96212.73
2018-04-15T10:12:49.482Z,96218.27
2018-04-15T10:15:15.402Z,96217.09
2018-04-15T10:17:41.297Z,96203.47
2018-04-15T10:20:07.844Z,96210.83
2018-04-15T10:22:33.798Z,96210.03
2018-04-15T10:25:03.044Z,96205.95
2018-04-15T10:27:28.991Z,96216.41
2018-04-15T10:29:57.219Z,96211.70
2018-04-15T10:32:23.129Z,96219.74
2018-04-15T10:34:51.792Z,96213.03
2018-04-15T10:37:17.689Z,96210.53
2018-04-15T10:39:46.646Z,96209.32
2018-04-15T10:42:12.540Z,96205.16
2018-04-15T10:44:41.325Z,96199.44
2018-04-15T10:47:07.261Z,96198.42
2018-04-15T10:49:33.172Z,96200.14
2018-04-15T10:51:59.093Z,96203.53
2018-04-15T10:54:25.028Z,96207.16
2018-04-15T10:56:54.673Z,96201.19
2018-04-15T10:59:20.579Z,96189.99
2018-04-15T11:01:48.286Z,96191.56
2018-04-15T11:04:14.192Z,96191.09
2018-04-15T11:06:42.699Z,96190.52
2018-04-15T11:09:08.615Z,96188.03
2018-04-15T11:11:38.432Z,96186.51
2018-04-15T11:14:04.399Z,96178.02
2018-04-15T11:16:32.103Z,96177.22
2018-04-15T11:18:57.977Z,96171.11
2018-04-15T11:21:27.793Z,96165.48
2018-04-15T11:23:53.644Z,96163.34
2018-04-15T11:26:19.539Z,96167.33
2018-04-15T11:28:45.424Z,96151.55
2018-04-15T11:31:11.321Z,96153.00
2018-04-15T11:33:38.626Z,96150.47
2018-04-15T11:36:04.506Z,96147.38
2018-04-15T11:38:33.285Z,96145.25
2018-04-15T11:40:59.159Z,96142.44
2018-04-15T11:43:28.888Z,96140.49
2018-04-15T11:45:54.786Z,96136.83
2018-04-15T11:48:22.447Z,96138.74
2018-04-15T11:50:48.366Z,96131.43
2018-04-15T11:53:16.715Z,96126.20
2018-04-15T11:55:42.612Z,96123.05
2018-04-15T12:00:39.460Z,96121.02
2018-04-15T12:03:05.352Z,96114.45
2018-04-15T12:05:31.436Z,96106.44
2018-04-15T12:07:57.289Z,96107.28
2018-04-15T12:10:23.807Z,96101.61
2018-04-15T12:12:49.687Z,96100.47
2018-04-15T12:15:19.347Z,96106.63
2018-04-15T12:17:45.263Z,96087.88
2018-04-15T12:20:14.906Z,96100.27
2018-04-15T12:22:40.807Z,96094.24
2018-04-15T12:25:08.532Z,96091.14
2018-04-15T12:27:34.397Z,96095.23
2018-04-15T12:30:04.344Z,96091.80
2018-04-15T12:32:30.261Z,96091.80
2018-04-15T12:34:57.943Z,96089.06
2018-04-15T12:37:23.868Z,96083.94
2018-04-15T12:39:49.774Z,96081.95
2018-04-15T12:42:15.676Z,96071.97
2018-04-15T12:44:41.599Z,96075.57
2018-04-15T12:47:09.511Z,96071.99
2018-04-15T12:49:35.423Z,96072.64
2018-04-15T12:52:04.272Z,96062.02
2018-04-15T12:54:30.171Z,96057.70
2018-04-15T12:56:58.793Z,96048.73
2018-04-15T12:59:24.707Z,96043.48
2018-04-15T13:01:54.753Z,96032.73
2018-04-15T13:04:20.620Z,96030.16
2018-04-15T13:06:48.259Z,96027.59
2018-04-15T13:09:14.244Z,96023.41
2018-04-15T13:11:42.739Z,96027.29
2018-04-15T13:14:08.610Z,96023.17
2018-04-15T13:16:34.562Z,96008.73
2018-04-15T13:19:00.457Z,96016.49
2018-04-15T13:21:26.398Z,96016.52
2018-04-15T13:23:55.531Z,96008.66
2018-04-15T13:26:21.464Z,96002.27
2018-04-15T13:28:49.072Z,95997.27
2018-04-15T13:31:14.951Z,96001.42
2018-04-15T13:33:44.671Z,95998.23
2018-04-15T13:36:10.523Z,96000.80
2018-04-15T13:38:38.423Z,95999.77
2018-04-15T13:41:04.322Z,96000.91
2018-04-15T13:43:34.075Z,95991.79
2018-04-15T13:45:59.978Z,96002.23
2018-04-15T13:48:27.853Z,95998.04
2018-04-15T13:50:53.824Z,95995.11
2018-04-15T13:53:19.785Z,95993.59
2018-04-15T13:55:45.645Z,95995.99
2018-04-15T13:58:26.491Z,95999.59
2018-04-15T14:00:52.401Z,95988.95
2018-04-15T14:03:18.314Z,95989.56
2018-04-15T14:05:44.419Z,95986.51
2018-04-15T14:08:10.297Z,95976.94
2018-04-15T14:10:36.185Z,95973.51
2018-04-15T14:13:02.251Z,95976.02
2018-04-15T14:15:28.190Z,95970.75
2018-04-15T14:17:54.155Z,95968.50
2018-04-15T14:20:20.023Z,95964.33
2018-04-15T14:22:46.002Z,95972.12
2018-04-15T14:25:13.358Z,95970.57
2018-04-15T14:27:39.279Z,95968.08
2018-04-15T14:30:05.187Z,95966.88
2018-04-15T14:32:31.074Z,95964.79
2018-04-15T14:34:56.992Z,95958.84
2018-04-15T14:37:25.117Z,95955.55
2018-04-15T14:39:51.020Z,95954.27
2018-04-15T14:42:19.511Z,95948.20
2018-04-15T14:44:45.513Z,95948.64
2018-04-15T14:47:14.540Z,95947.63
2018-04-15T14:49:40.464Z,95946.83
2018-04-15T14:52:09.366Z,95951.08
2018-04-15T14:54:35.271Z,95947.02
2018-04-15T14:57:05.145Z,95950.20
2018-04-15T14:59:31.051Z,95943.94
2018-04-15T15:01:58.815Z,95939.29
2018-04-15T15:04:24.803Z,95933.26
2018-04-15T15:06:50.722Z,95937.69
2018-04-15T15:09:16.588Z,95939.94
2018-04-15T15:11:42.491Z,95939.91
2018-04-15T15:14:10.188Z,95942.25
2018-04-15T15:16:36.075Z,95933.84
2018-04-15T15:19:04.871Z,95936.86
2018-04-15T15:21:30.772Z,95930.98
2018-04-15T15:24:00.133Z,95923.50
2018-04-15T15:26:26.042Z,95926.88
2018-04-15T15:28:54.103Z,95928.98
2018-04-15T15:31:19.999Z,95929.97
2018-04-15T15:33:49.204Z,95929.58
2018-04-15T15:36:15.114Z,95919.92
2018-04-15T15:38:43.650Z,95925.93
2018-04-15T15:41:09.511Z,95925.83
2018-04-15T15:43:35.401Z,95932.48
2018-04-15T15:46:01.303Z,95936.78
2018-04-15T15:48:27.256Z,95935.50
2018-04-15T15:50:55.842Z,95937.00
2018-04-15T15:53:21.734Z,95932.56
2018-04-15T15:55:51.582Z,95934.30
2018-04-15T15:58:17.446Z,95936.34
2018-04-15T16:00:44.934Z,95930.77
2018-04-15T16:03:10.795Z,95933.66
2018-04-15T16:05:40.621Z,95934.75
2018-04-15T16:08:06.488Z,95924.84
2018-04-15T16:10:34.356Z,95930.81
2018-04-15T16:13:00.275Z,95921.75
2018-04-15T16:15:29.494Z,95922.22
2018-04-15T16:17:55.423Z,95911.90
2018-04-15T16:20:21.295Z,95904.70
2018-04-15T16:22:47.193Z,95910.00
2018-04-15T16:25:13.100Z,95907.97
2018-04-15T16:27:42.354Z,95911.23
2018-04-15T16:30:08.262Z,95916.58
2018-04-15T16:32:35.902Z,95917.18
2018-04-15T16:35:01.797Z,95917.04
2018-04-15T16:37:29.972Z,95922.52
2018-04-15T16:39:55.825Z,95921.35
2018-04-15T16:42:24.593Z,95924.77
2018-04-15T16:44:50.527Z,95923.63
2018-04-15T16:47:19.485Z,95922.80
2018-04-15T16:49:45.369Z,95926.13
2018-04-15T16:52:14.204Z,95927.98
2018-04-15T16:54:40.099Z,95935.20
2018-04-15T16:57:06.060Z,95938.30
2018-04-15T16:59:32.112Z,95933.73
2018-04-15T17:01:58.032Z,95934.05
2018-04-15T17:04:27.024Z,95935.91
2018-04-15T17:06:52.904Z,95935.89
2018-04-15T17:09:20.781Z,95928.94
2018-04-15T17:11:46.703Z,95933.84
2018-04-15T17:14:16.523Z,95937.78
2018-04-15T17:16:42.468Z,95941.09
2018-04-15T17:19:10.249Z,95942.88
2018-04-15T17:21:36.133Z,95945.05
2018-04-15T17:24:05.098Z,95954.02
2018-04-15T17:26:31.080Z,95947.34
2018-04-15T17:29:00.590Z,95951.48
2018-04-15T17:31:26.488Z,95955.92
2018-04-15T17:33:52.408Z,95958.92
2018-04-15T17:36:18.299Z,95957.95
2018-04-15T17:38:44.208Z,95970.00
2018-04-15T17:41:12.131Z,95970.95
2018-04-15T17:43:38.056Z,95975.29
2018-04-15T17:46:07.797Z,95982.17
2018-04-15T17:48:33.740Z,95981.52
2018-04-15T17:51:01.422Z,95984.41
2018-04-15T17:53:27.348Z,95989.53
2018-04-15T17:55:57.137Z,95986.45
2018-04-15T17:58:23.002Z,95993.07
2018-04-15T18:00:50.628Z,95987.52
2018-04-15T18:03:16.563Z,96000.34
2018-04-15T18:05:46.484Z,96001.39
2018-04-15T18:08:12.377Z,96002.36
2018-04-15T18:10:38.295Z,96000.20
2018-04-15T18:13:04.211Z,96003.96
2018-04-15T18:15:30.186Z,96013.74
2018-04-15T18:17:57.379Z,96007.33
2018-04-15T18:20:23.326Z,96003.20
2018-04-15T18:22:52.965Z,96000.22
2018-04-15T18:25:18.842Z,96004.16
2018-04-15T18:27:46.607Z,96012.14
2018-04-15T18:30:12.503Z,96010.16
2018-04-15T18:32:42.268Z,96011.78
2018-04-15T18:35:08.190Z,96016.08
2018-04-15T18:37:35.846Z,96008.82
2018-04-15T18:40:01.805Z,96013.14
2018-04-15T18:42:31.492Z,96016.59
2018-04-15T18:44:57.347Z,96016.98
2018-04-15T18:47:23.287Z,96017.13
2018-04-15T18:49:49.251Z,96018.27
2018-04-15T18:52:15.164Z,96021.70
2018-04-15T18:54:41.967Z,96019.63
2018-04-15T18:57:07.984Z,96018.38
2018-04-15T18:59:37.043Z,96021.33
2018-04-15T19:02:03.215Z,96015.61
2018-04-15T19:04:32.812Z,96024.22
2018-04-15T19:06:58.681Z,96021.70
2018-04-15T19:09:26.578Z,96027.02
2018-04-15T19:11:52.498Z,96026.92
2018-04-15T19:14:22.381Z,96025.69
2018-04-15T19:16:48.329Z,96034.91
2018-04-15T19:19:15.870Z,96034.86
2018-04-15T19:21:41.767Z,96035.92
2018-04-15T19:24:07.683Z,96032.95
2018-04-15T19:26:33.605Z,96035.03
2018-04-15T19:28:59.518Z,96034.15
2018-04-15T19:31:28.656Z,96045.19
2018-04-15T19:33:54.572Z,96036.88
2018-04-15T19:36:22.312Z,96040.36
2018-04-15T19:38:48.255Z,96042.70
2018-04-15T19:41:18.051Z,96041.50
2018-04-15T19:43:43.944Z,96040.92
2018-04-15T19:46:11.766Z,96050.30
2018-04-15T19:48:37.742Z,96044.66
2018-04-15T19:51:07.490Z,96040.98
2018-04-15T19:53:33.509Z,96044.45
2018-04-15T19:56:01.146Z,96044.34
2018-04-15T19:58:27.066Z,96045.06
2018-04-15T20:00:52.953Z,96044.96
2018-04-15T20:03:18.834Z,96053.47
2018-04-15T20:05:44.898Z,96050.14
2018-04-15T20:08:14.059Z,96051.67
2018-04-15T20:10:39.964Z,96049.83
2018-04-15T20:13:07.658Z,96052.20
2018-04-15T20:15:33.650Z,96047.64
2018-04-15T20:18:03.528Z,96056.02
2018-04-15T20:20:29.670Z,96050.73
2018-04-15T20:22:56.316Z,96058.88
2018-04-15T20:25:22.262Z,96048.19
2018-04-15T20:27:51.207Z,96049.92
2018-04-15T20:30:17.117Z,96050.88
2018-04-15T20:32:46.743Z,96050.66
2018-04-15T20:35:12.651Z,96052.03
2018-04-15T20:37:38.569Z,96053.03
2018-04-15T20:40:04.488Z,96049.89
2018-04-15T20:42:30.403Z,96053.37
2018-04-15T20:44:59.457Z,96050.96
2018-04-15T20:47:25.338Z,96047.38
2018-04-15T20:49:52.284Z,96046.53
2018-04-15T20:52:18.163Z,96048.09
2018-04-15T20:54:47.315Z,96043.25
2018-04-15T20:57:13.227Z,96042.67
2018-04-15T20:59:41.690Z,96041.61
2018-04-15T21:02:07.577Z,96039.53
2018-04-15T21:04:36.552Z,96043.13
2018-04-15T21:07:02.477Z,96037.22
2018-04-15T21:09:31.641Z,96039.27
2018-04-15T21:11:57.528Z,96035.34
2018-04-15T21:14:23.419Z,96036.58
2018-04-15T21:16:49.292Z,96042.37
2018-04-15T21:19:15.200Z,96039.14
2018-04-15T21:21:44.632Z,96039.95
2018-04-15T21:24:10.550Z,96043.34
2018-04-15T21:26:38.285Z,96041.28
2018-04-15T21:29:04.588Z,96042.14
2018-04-15T21:31:34.010Z,96035.25
2018-04-15T21:33:59.898Z,96028.55
2018-04-15T21:36:27.658Z,96042.13
2018-04-15T21:38:53.553Z,96043.98
2018-04-15T21:41:23.420Z,96049.19
2018-04-15T21:43:49.295Z,96045.84
2018-04-15T21:46:16.986Z,96043.03
2018-04-15T21:48:42.885Z,96038.89
2018-04-15T21:51:08.820Z,96040.70
2018-04-15T21:53:34.737Z,96046.13
2018-04-15T21:56:00.627Z,96048.06
2018-04-15T21:58:29.610Z,96046.21
2018-04-15T22:00:55.521Z,96043.27
2018-04-15T22:03:23.441Z,96035.80
2018-04-15T22:05:49.373Z,96048.59
2018-04-15T22:08:17.739Z,96041.31
2018-04-15T22:10:43.652Z,96050.38
2018-04-15T22:13:12.575Z,96051.77
2018-04-15T22:15:38.483Z,96048.83
2018-04-15T22:18:07.048Z,96053.87
2018-04-15T22:20:32.959Z,96052.19
2018-04-15T22:23:01.896Z,96054.31
2018-04-15T22:25:27.793Z,96061.42
2018-04-15T22:27:53.708Z,96062.14
2018-04-15T22:30:19.573Z,96056.59
2018-04-15T22:32:45.427Z,96061.17
2018-04-15T22:35:14.430Z,96057.45
2018-04-15T22:37:40.365Z,96058.34
2018-04-15T22:40:08.210Z,96059.66
2018-04-15T22:42:34.096Z,96045.94
2018-04-15T22:45:03.890Z,96061.94
2018-04-15T22:47:29.768Z,96063.80
2018-04-15T22:50:03.557Z,96063.13
2018-04-15T22:52:29.491Z,96059.95
2018-04-15T22:54:55.456Z,96061.86
2018-04-15T22:57:21.344Z,96052.33
2018-04-15T22:59:47.268Z,96055.16
2018-04-15T23:02:13.161Z,96053.52
2018-04-15T23:04:39.039Z,96055.51
2018-04-15T23:07:04.951Z,96061.86
2018-04-15T23:09:30.887Z,96066.84
2018-04-15T23:11:58.732Z,96064.91
2018-04-15T23:14:24.611Z,96057.20
2018-04-15T23:16:53.524Z,96052.28
2018-04-15T23:19:19.460Z,96054.41
2018-04-15T23:21:49.280Z,96049.84
2018-04-15T23:24:15.214Z,96051.44
2018-04-15T23:26:42.960Z,96045.59
2018-04-15T23:29:08.863Z,96058.17
2018-04-15T23:31:38.559Z,96046.22
2018-04-15T23:34:04.755Z,96060.70
2018-04-15T23:36:32.299Z,96062.50
2018-04-15T23:38:58.246Z,96054.20
2018-04-15T23:41:24.145Z,96066.45
2018-04-15T23:43:50.103Z,96064.85
2018-04-15T23:46:15.990Z,96069.50
2018-04-15T23:48:44.067Z,96069.98
2018-04-15T23:51:09.993Z,96066.77
2018-04-15T23:53:38.887Z,96072.37
2018-04-15T23:56:04.787Z,96072.50
2018-04-15T23:58:33.808Z,96072.23
